createdAt,value
2023-04-02T00:00:16.128Z,100928.38
2023-04-02T00:02:55.404Z,100923.28
2023-04-02T00:05:26.090Z,100931.41
2023-04-02T00:07:58.049Z,100930.00
2023-04-02T00:10:40.478Z,100938.97
2023-04-02T00:13:33.469Z,100934.91
2023-04-02T00:16:01.164Z,100935.94
2023-04-02T00:18:28.270Z,100946.28
2023-04-02T00:21:05.635Z,100946.72
2023-04-02T00:23:32.131Z,100951.19
2023-04-02T00:25:58.620Z,100958.28
2023-04-02T00:28:26.425Z,100950.59
2023-04-02T00:30:59.519Z,100957.94
2023-04-02T00:33:30.388Z,100957.94
2023-04-02T00:35:57.504Z,100958.72
2023-04-02T00:38:33.209Z,100964.59
2023-04-02T00:41:03.741Z,100968.50
2023-04-02T00:43:36.083Z,100971.94
2023-04-02T00:46:10.984Z,100970.53
2023-04-02T00:48:57.604Z,100971.31
2023-04-02T00:51:29.759Z,100977.63
2023-04-02T00:54:01.094Z,100981.31
2023-04-02T00:56:32.561Z,100985.97
2023-04-02T00:58:59.581Z,100993.72
2023-04-02T01:01:34.297Z,100998.38
2023-04-02T01:04:02.307Z,100989.66
2023-04-02T01:06:34.285Z,101003.88
2023-04-02T01:09:00.999Z,101003.88
2023-04-02T01:11:28.506Z,101007.50
2023-04-02T01:14:07.171Z,101017.28
2023-04-02T01:17:00.517Z,101010.16
2023-04-02T01:19:52.677Z,101014.03
2023-04-02T01:22:19.276Z,101016.69
2023-04-02T01:24:46.350Z,101020.13
2023-04-02T01:27:18.667Z,101026.22
2023-04-02T01:29:55.720Z,101030.09
2023-04-02T01:32:25.528Z,101033.53
2023-04-02T01:34:53.100Z,101026.63
2023-04-02T01:37:49.450Z,101037.00
2023-04-02T01:40:18.982Z,101039.66
2023-04-02T01:43:10.875Z,101027.66
2023-04-02T01:45:37.721Z,101045.13
2023-04-02T01:48:16.804Z,101050.22
2023-04-02T01:50:45.473Z,101041.69
2023-04-02T01:53:14.849Z,101050.63
2023-04-02T01:55:44.283Z,101052.25
2023-04-02T01:58:14.184Z,101052.88
2023-04-02T02:01:08.986Z,101050.81
2023-04-02T02:03:36.761Z,101052.66
2023-04-02T02:06:06.102Z,101061.19
2023-04-02T02:09:04.941Z,101064.66
2023-04-02T02:11:33.580Z,101067.28
2023-04-02T02:14:02.233Z,101075.44
2023-04-02T02:16:32.114Z,101080.09
2023-04-02T02:19:04.787Z,101081.69
2023-04-02T02:21:39.908Z,101089.19
2023-04-02T02:24:23.150Z,101087.38
2023-04-02T02:26:57.616Z,101090.84
2023-04-02T02:29:28.499Z,101095.31
2023-04-02T02:31:56.350Z,101099.97
2023-04-02T02:34:29.874Z,101107.09
2023-04-02T02:37:07.003Z,101108.13
2023-04-02T02:39:39.801Z,101116.63
2023-04-02T02:42:38.694Z,101122.94
2023-04-02T02:45:29.008Z,101127.00
2023-04-02T02:47:57.290Z,101128.63
2023-04-02T02:50:28.190Z,101131.47
2023-04-02T02:52:57.340Z,101128.84
2023-04-02T02:55:34.564Z,101133.50
2023-04-02T02:58:11.900Z,101128.22
2023-04-02T03:00:40.247Z,101140.41
2023-04-02T03:03:12.424Z,101139.00
2023-04-02T03:05:40.902Z,101146.28
2023-04-02T03:08:17.902Z,101156.03
2023-04-02T03:10:56.720Z,101162.34
2023-04-02T03:13:29.015Z,101155.44
2023-04-02T03:16:20.731Z,101174.13
2023-04-02T03:19:05.937Z,101176.97
2023-04-02T03:21:49.250Z,101178.00
2023-04-02T03:24:36.341Z,101186.09
2023-04-02T03:27:06.232Z,101188.16
2023-04-02T03:29:41.897Z,101193.63
2023-04-02T03:32:17.355Z,101201.53
2023-04-02T03:34:51.737Z,101204.78
2023-04-02T03:37:23.283Z,101206.63
2023-04-02T03:40:00.363Z,101209.66
2023-04-02T03:42:29.987Z,101210.28
2023-04-02T03:45:02.976Z,101212.50
2023-04-02T03:47:37.976Z,101222.84
2023-04-02T03:50:12.481Z,101211.88
2023-04-02T03:52:39.460Z,101221.44
2023-04-02T03:55:26.478Z,101223.66
2023-04-02T03:57:58.404Z,101225.50
2023-04-02T04:00:35.321Z,101229.94
2023-04-02T04:03:14.479Z,101239.69
2023-04-02T04:05:57.249Z,101247.81
2023-04-02T04:08:27.836Z,101254.28
2023-04-02T04:10:57.876Z,101255.31
2023-04-02T04:13:40.619Z,101253.31
2023-04-02T04:16:12.158Z,101248.22
2023-04-02T04:18:49.635Z,101255.31
2023-04-02T04:21:30.100Z,101249.44
2023-04-02T04:24:27.586Z,101263.63
2023-04-02T04:27:04.475Z,101259.38
2023-04-02T04:29:58.212Z,101268.31
2023-04-02T04:32:34.389Z,101269.50
2023-04-02T04:35:08.713Z,101274.19
2023-04-02T04:37:39.860Z,101276.19
2023-04-02T04:40:23.047Z,101284.75
2023-04-02T04:42:55.289Z,101286.53
2023-04-02T04:45:40.323Z,101289.59
2023-04-02T04:48:14.029Z,101292.63
2023-04-02T04:50:55.652Z,101302.16
2023-04-02T04:53:25.953Z,101300.75
2023-04-02T04:55:56.990Z,101299.91
2023-04-02T04:58:33.708Z,101304.59
2023-04-02T05:01:27.363Z,101311.69
2023-04-02T05:04:04.565Z,101333.81
2023-04-02T05:06:51.145Z,101334.00
2023-04-02T05:09:40.035Z,101337.44
2023-04-02T05:12:18.849Z,101334.38
2023-04-02T05:14:54.629Z,101341.47
2023-04-02T05:17:28.273Z,101343.53
2023-04-02T05:20:16.292Z,101345.53
2023-04-02T05:22:57.688Z,101353.44
2023-04-02T05:25:29.926Z,101350.19
2023-04-02T05:28:21.737Z,101357.31
2023-04-02T05:30:49.449Z,101360.91
2023-04-02T05:33:27.180Z,101375.13
2023-04-02T05:36:05.926Z,101378.56
2023-04-02T05:38:38.661Z,101377.97
2023-04-02T05:41:17.310Z,101385.06
2023-04-02T05:43:47.649Z,101380.63
2023-04-02T05:46:18.233Z,101380.78
2023-04-02T05:48:50.110Z,101398.44
2023-04-02T05:51:21.149Z,101392.34
2023-04-02T05:53:55.591Z,101401.28
2023-04-02T05:56:27.945Z,101403.91
2023-04-02T05:59:00.822Z,101407.53
2023-04-02T06:01:47.265Z,101419.91
2023-04-02T06:04:19.870Z,101417.09
2023-04-02T06:06:52.467Z,101415.28
2023-04-02T06:09:51.126Z,101419.53
2023-04-02T06:12:26.544Z,101426.66
2023-04-02T06:14:53.390Z,101428.66
2023-04-02T06:17:21.099Z,101435.75
2023-04-02T06:19:49.739Z,101432.13
2023-04-02T06:22:23.922Z,101440.66
2023-04-02T06:24:57.453Z,101446.72
2023-04-02T06:27:26.550Z,101447.09
2023-04-02T06:29:58.429Z,101451.41
2023-04-02T06:32:27.061Z,101445.91
2023-04-02T06:34:54.061Z,101458.09
2023-04-02T06:37:27.688Z,101454.66
2023-04-02T06:39:55.291Z,101466.00
2023-04-02T06:42:24.606Z,101461.75
2023-04-02T06:44:51.280Z,101468.63
2023-04-02T06:47:30.628Z,101471.91
2023-04-02T06:50:03.512Z,101479.03
2023-04-02T06:52:52.511Z,101477.19
2023-04-02T06:56:13.485Z,101487.75
2023-04-02T06:58:40.165Z,101490.38
2023-04-02T07:01:06.782Z,101493.84
2023-04-02T07:03:34.150Z,101498.91
2023-04-02T07:06:02.608Z,101501.53
2023-04-02T07:08:29.137Z,101506.44
2023-04-02T07:10:56.366Z,101508.72
2023-04-02T07:13:24.357Z,101520.72
2023-04-02T07:15:53.214Z,101516.03
2023-04-02T07:18:34.089Z,101526.44
2023-04-02T07:21:00.793Z,101524.41
2023-04-02T07:23:27.343Z,101525.19
2023-04-02T07:25:55.113Z,101520.56
2023-04-02T07:28:22.884Z,101535.38
2023-04-02T07:30:51.074Z,101540.44
2023-04-02T07:33:21.135Z,101543.91
2023-04-02T07:35:48.861Z,101549.00
2023-04-02T07:38:15.509Z,101555.09
2023-04-02T07:40:42.279Z,101562.81
2023-04-02T07:43:09.214Z,101568.09
2023-04-02T07:45:36.294Z,101556.56
2023-04-02T07:48:11.086Z,101566.09
2023-04-02T07:50:38.111Z,101571.53
2023-04-02T07:53:05.321Z,101573.81
2023-04-02T07:55:32.068Z,101578.91
2023-04-02T07:57:59.933Z,101582.00
2023-04-02T08:00:29.012Z,101583.63
2023-04-02T08:02:56.367Z,101585.03
2023-04-02T08:05:23.393Z,101589.13
2023-04-02T08:07:57.084Z,101589.75
2023-04-02T08:10:24.441Z,101588.53
2023-04-02T08:12:51.742Z,101584.72
2023-04-02T08:15:18.434Z,101593.25
2023-04-02T08:17:45.692Z,101586.97
2023-04-02T08:20:18.204Z,101593.69
2023-04-02T08:22:49.212Z,101597.56
2023-04-02T08:25:16.550Z,101596.59
2023-04-02T08:27:43.398Z,101608.56
2023-04-02T08:30:13.112Z,101594.16
2023-04-02T08:32:41.196Z,101604.34
2023-04-02T08:35:11.049Z,101605.78
2023-04-02T08:37:38.154Z,101608.84
2023-04-02T08:40:07.393Z,101606.63
2023-04-02T08:42:52.577Z,101609.91
2023-04-02T08:45:32.340Z,101622.38
2023-04-02T08:48:03.341Z,101621.78
2023-04-02T08:50:39.025Z,101623.84
2023-04-02T08:53:21.364Z,101631.00
2023-04-02T08:56:17.667Z,101633.88
2023-04-02T08:58:51.489Z,101644.47
2023-04-02T09:01:51.829Z,101647.34
2023-04-02T09:04:23.708Z,101633.97
2023-04-02T09:06:53.644Z,101651.50
2023-04-02T09:09:22.437Z,101654.19
2023-04-02T09:12:04.356Z,101666.63
2023-04-02T09:14:44.824Z,101669.50
2023-04-02T09:17:23.028Z,101676.88
2023-04-02T09:20:01.621Z,101674.88
2023-04-02T09:22:30.208Z,101673.88
2023-04-02T09:24:58.921Z,101668.03
2023-04-02T09:27:31.054Z,101672.31
2023-04-02T09:30:36.153Z,101672.56
2023-04-02T09:33:08.007Z,101669.56
2023-04-02T09:35:54.881Z,101679.97
2023-04-02T09:38:31.750Z,101677.56
2023-04-02T09:41:19.642Z,101685.50
2023-04-02T09:43:46.398Z,101684.25
2023-04-02T09:46:13.010Z,101690.94
2023-04-02T09:49:01.412Z,101690.91
2023-04-02T09:51:31.837Z,101693.28
2023-04-02T09:54:04.426Z,101697.94
2023-04-02T09:56:33.379Z,101703.47
2023-04-02T09:59:05.759Z,101703.84
2023-04-02T10:01:35.531Z,101705.47
2023-04-02T10:04:04.084Z,101706.88
2023-04-02T10:06:32.782Z,101704.03
2023-04-02T10:09:19.829Z,101710.16
2023-04-02T10:11:47.060Z,101709.34
2023-04-02T10:14:38.658Z,101720.53
2023-04-02T10:17:28.812Z,101718.09
2023-04-02T10:20:19.947Z,101718.84
2023-04-02T10:22:47.049Z,101718.63
2023-04-02T10:25:15.832Z,101713.47
2023-04-02T10:27:52.000Z,101713.84
2023-04-02T10:30:21.195Z,101728.31
2023-04-02T10:33:24.350Z,101724.34
2023-04-02T10:36:11.460Z,101731.25
2023-04-02T10:38:49.892Z,101728.34
2023-04-02T10:41:21.161Z,101731.78
2023-04-02T10:43:57.852Z,101732.31
2023-04-02T10:46:37.759Z,101741.88
2023-04-02T10:49:23.747Z,101741.59
2023-04-02T10:51:59.438Z,101744.00
2023-04-02T10:54:31.786Z,101748.00
2023-04-02T10:57:11.664Z,101751.66
2023-04-02T10:59:44.587Z,101751.00
2023-04-02T11:02:28.892Z,101744.19
2023-04-02T11:04:59.927Z,101739.84
2023-04-02T11:07:32.395Z,101731.38
2023-04-02T11:10:00.931Z,101742.69
2023-04-02T11:12:42.353Z,101746.22
2023-04-02T11:15:17.964Z,101744.81
2023-04-02T11:17:45.602Z,101747.09
2023-04-02T11:20:48.929Z,101749.03
2023-04-02T11:23:20.354Z,101750.78
2023-04-02T11:25:47.435Z,101746.63
2023-04-02T11:28:15.525Z,101758.44
2023-04-02T11:30:42.624Z,101762.91
2023-04-02T11:33:38.104Z,101765.63
2023-04-02T11:36:44.456Z,101755.38
2023-04-02T11:39:17.278Z,101765.59
2023-04-02T11:42:05.838Z,101777.28
2023-04-02T11:44:32.499Z,101773.22
2023-04-02T11:47:21.828Z,101771.19
2023-04-02T11:49:54.649Z,101776.53
2023-04-02T11:52:25.564Z,101786.63
2023-04-02T11:54:58.608Z,101793.13
2023-04-02T11:57:28.365Z,101787.56
2023-04-02T12:00:11.155Z,101784.88
2023-04-02T12:03:03.418Z,101796.50
2023-04-02T12:05:43.216Z,101800.69
2023-04-02T12:08:54.322Z,101795.94
2023-04-02T12:11:35.174Z,101794.75
2023-04-02T12:14:23.397Z,101786.06
2023-04-02T12:16:50.063Z,101791.59
2023-04-02T12:19:17.104Z,101794.09
2023-04-02T12:21:47.531Z,101796.25
2023-04-02T12:24:23.317Z,101801.66
2023-04-02T12:27:08.569Z,101803.97
2023-04-02T12:29:36.327Z,101804.28
2023-04-02T12:32:04.054Z,101802.66
2023-04-02T12:34:31.060Z,101808.25
2023-04-02T12:37:03.035Z,101814.09
2023-04-02T12:39:33.986Z,101821.56
2023-04-02T12:42:00.896Z,101814.34
2023-04-02T12:44:30.216Z,101823.25
2023-04-02T12:46:58.799Z,101814.13
2023-04-02T12:49:56.586Z,101817.16
2023-04-02T12:52:28.767Z,101809.50
2023-04-02T12:54:58.510Z,101808.75
2023-04-02T12:57:28.937Z,101817.38
2023-04-02T13:00:01.220Z,101821.06
2023-04-02T13:02:30.955Z,101817.84
2023-04-02T13:05:01.338Z,101822.25
2023-04-02T13:07:33.597Z,101825.03
2023-04-02T13:10:02.968Z,101825.50
2023-04-02T13:12:40.762Z,101816.34
2023-04-02T13:15:28.850Z,101807.81
2023-04-02T13:18:03.428Z,101817.34
2023-04-02T13:20:36.782Z,101813.78
2023-04-02T13:23:29.599Z,101819.13
2023-04-02T13:26:20.411Z,101814.56
2023-04-02T13:29:17.788Z,101810.03
2023-04-02T13:31:44.448Z,101819.91
2023-04-02T13:34:11.006Z,101819.75
2023-04-02T13:36:37.549Z,101808.34
2023-04-02T13:39:05.079Z,101816.00
2023-04-02T13:41:36.579Z,101814.78
2023-04-02T13:44:04.034Z,101814.59
2023-04-02T13:46:33.616Z,101814.16
2023-04-02T13:49:01.180Z,101819.63
2023-04-02T13:51:37.277Z,101819.34
2023-04-02T13:54:13.937Z,101825.00
2023-04-02T13:56:41.272Z,101824.66
2023-04-02T13:59:07.771Z,101830.22
2023-04-02T14:01:34.751Z,101830.44
2023-04-02T14:04:02.568Z,101823.16
2023-04-02T14:06:52.437Z,101831.59
2023-04-02T14:09:18.915Z,101827.34
2023-04-02T14:12:11.309Z,101824.94
2023-04-02T14:15:02.488Z,101819.78
2023-04-02T14:17:47.703Z,101821.13
2023-04-02T14:20:46.145Z,101822.75
2023-04-02T14:23:31.386Z,101815.25
2023-04-02T14:26:00.677Z,101819.03
2023-04-02T14:29:12.195Z,101816.00
2023-04-02T14:31:47.190Z,101822.72
2023-04-02T14:34:25.805Z,101831.81
2023-04-02T14:37:04.491Z,101826.16
2023-04-02T14:39:49.604Z,101815.69
2023-04-02T14:42:22.100Z,101825.88
2023-04-02T14:45:17.090Z,101844.00
2023-04-02T14:47:50.090Z,101834.25
2023-04-02T14:50:52.395Z,101845.72
2023-04-02T14:53:29.272Z,101847.34
2023-04-02T14:56:00.950Z,101847.00
2023-04-02T14:58:37.350Z,101848.53
2023-04-02T15:01:15.290Z,101845.19
2023-04-02T15:04:04.634Z,101827.03
2023-04-02T15:06:37.529Z,101832.00
2023-04-02T15:09:11.886Z,101833.69
2023-04-02T15:11:42.424Z,101846.56
2023-04-02T15:14:18.887Z,101841.31
2023-04-02T15:16:45.981Z,101837.44
2023-04-02T15:19:15.531Z,101846.94
2023-04-02T15:22:09.116Z,101852.78
2023-04-02T15:25:10.413Z,101844.66
2023-04-02T15:27:45.933Z,101851.28
2023-04-02T15:30:24.847Z,101856.72
2023-04-02T15:32:54.473Z,101852.91
2023-04-02T15:35:36.603Z,101866.53
2023-04-02T15:38:31.163Z,101858.66
2023-04-02T15:41:04.132Z,101856.72
2023-04-02T15:43:41.800Z,101858.00
2023-04-02T15:46:43.539Z,101853.22
2023-04-02T15:49:28.880Z,101860.78
2023-04-02T15:52:05.502Z,101855.41
2023-04-02T15:54:53.505Z,101852.63
2023-04-02T15:58:01.539Z,101863.28
2023-04-02T16:00:34.442Z,101856.97
2023-04-02T16:03:20.863Z,101853.91
2023-04-02T16:06:26.358Z,101851.69
2023-04-02T16:09:07.190Z,101858.59
2023-04-02T16:11:34.388Z,101862.84
2023-04-02T16:14:14.367Z,101863.81
2023-04-02T16:16:42.842Z,101872.28
2023-04-02T16:19:22.849Z,101875.97
2023-04-02T16:22:27.067Z,101891.28
2023-04-02T16:25:14.572Z,101894.00
2023-04-02T16:27:46.301Z,101891.66
2023-04-02T16:30:22.621Z,101892.88
2023-04-02T16:32:49.231Z,101890.34
2023-04-02T16:35:42.358Z,101897.75
2023-04-02T16:38:28.975Z,101896.28
2023-04-02T16:41:34.279Z,101904.47
2023-04-02T16:44:18.870Z,101905.19
2023-04-02T16:47:00.885Z,101911.03
2023-04-02T16:49:36.571Z,101917.59
2023-04-02T16:52:30.694Z,101911.56
2023-04-02T16:55:12.572Z,101917.78
2023-04-02T16:58:00.022Z,101923.16
2023-04-02T17:00:32.833Z,101912.97
2023-04-02T17:03:02.179Z,101918.00
2023-04-02T17:05:50.021Z,101914.19
2023-04-02T17:08:32.624Z,101919.91
2023-04-02T17:11:06.577Z,101922.50
2023-04-02T17:13:52.778Z,101931.78
2023-04-02T17:16:46.704Z,101936.88
2023-04-02T17:19:15.626Z,101941.34
2023-04-02T17:21:47.079Z,101944.81
2023-04-02T17:24:14.311Z,101948.75
2023-04-02T17:26:43.468Z,101952.28
2023-04-02T17:29:18.305Z,101963.41
2023-04-02T17:31:46.423Z,101967.84
2023-04-02T17:34:18.050Z,101962.69
2023-04-02T17:36:58.582Z,101964.47
2023-04-02T17:39:25.693Z,101965.19
2023-04-02T17:42:18.825Z,101970.25
2023-04-02T17:45:04.847Z,101976.31
2023-04-02T17:47:40.796Z,101970.28
2023-04-02T17:50:28.555Z,101977.38
2023-04-02T17:53:44.564Z,101981.25
2023-04-02T17:56:28.993Z,101987.72
2023-04-02T17:59:21.697Z,101989.84
2023-04-02T18:02:07.530Z,101987.47
2023-04-02T18:04:53.765Z,102002.97
2023-04-02T18:07:32.480Z,102003.63
2023-04-02T18:10:08.143Z,102006.56
2023-04-02T18:12:49.883Z,102003.97
2023-04-02T18:15:36.481Z,102016.91
2023-04-02T18:18:31.107Z,102020.84
2023-04-02T18:21:22.941Z,102019.25
2023-04-02T18:24:14.663Z,102021.53
2023-04-02T18:27:04.289Z,102026.69
2023-04-02T18:29:49.414Z,102032.19
2023-04-02T18:32:35.899Z,102035.09
2023-04-02T18:35:31.614Z,102038.94
2023-04-02T18:38:15.666Z,102043.66
2023-04-02T18:41:00.775Z,102051.59
2023-04-02T18:44:16.594Z,102053.59
2023-04-02T18:46:47.408Z,102056.22
2023-04-02T18:49:19.718Z,102056.81
2023-04-02T18:51:49.287Z,102057.59
2023-04-02T18:54:18.813Z,102067.34
2023-04-02T18:56:45.629Z,102060.19
2023-04-02T18:59:12.148Z,102065.66
2023-04-02T19:01:49.382Z,102070.25
2023-04-02T19:04:37.089Z,102076.53
2023-04-02T19:07:16.857Z,102071.97
2023-04-02T19:09:46.976Z,102070.09
2023-04-02T19:12:22.121Z,102080.00
2023-04-02T19:14:51.075Z,102077.06
2023-04-02T19:17:29.955Z,102076.03
2023-04-02T19:20:08.801Z,102086.13
2023-04-02T19:22:50.662Z,102087.88
2023-04-02T19:25:37.826Z,102089.25
2023-04-02T19:28:33.877Z,102089.16
2023-04-02T19:31:26.594Z,102100.47
2023-04-02T19:34:19.130Z,102097.94
2023-04-02T19:36:58.829Z,102108.00
2023-04-02T19:39:46.814Z,102111.03
2023-04-02T19:42:38.189Z,102104.00
2023-04-02T19:45:29.224Z,102115.94
2023-04-02T19:47:58.554Z,102114.00
2023-04-02T19:50:25.432Z,102121.03
2023-04-02T19:52:52.027Z,102113.66
2023-04-02T19:55:18.627Z,102115.03
2023-04-02T19:57:45.188Z,102113.53
2023-04-02T20:00:14.535Z,102116.88
2023-04-02T20:02:41.257Z,102119.81
2023-04-02T20:05:08.217Z,102128.81
2023-04-02T20:07:34.750Z,102129.84
2023-04-02T20:10:01.440Z,102128.56
2023-04-02T20:12:28.008Z,102132.66
2023-04-02T20:14:56.074Z,102129.56
2023-04-02T20:17:22.665Z,102126.97
2023-04-02T20:19:49.169Z,102135.09
2023-04-02T20:22:15.730Z,102135.78
2023-04-02T20:24:42.765Z,102148.47
2023-04-02T20:27:09.379Z,102151.44
2023-04-02T20:29:36.085Z,102157.19
2023-04-02T20:32:02.689Z,102146.72
2023-04-02T20:34:29.512Z,102156.34
2023-04-02T20:36:56.461Z,102160.47
2023-04-02T20:39:24.371Z,102163.03
2023-04-02T20:41:51.208Z,102158.91
2023-04-02T20:44:17.712Z,102157.69
2023-04-02T20:46:44.353Z,102159.88
2023-04-02T20:49:11.138Z,102157.94
2023-04-02T20:51:37.722Z,102155.81
2023-04-02T20:54:04.454Z,102158.63
2023-04-02T20:56:31.116Z,102163.78
2023-04-02T20:58:57.720Z,102159.84
2023-04-02T21:01:30.036Z,102165.66
2023-04-02T21:04:01.605Z,102167.53
2023-04-02T21:06:33.918Z,102161.59
2023-04-02T21:09:08.160Z,102161.97
2023-04-02T21:11:36.671Z,102160.47
2023-04-02T21:14:04.260Z,102167.13
2023-04-02T21:16:32.196Z,102170.44
2023-04-02T21:19:04.415Z,102165.19
2023-04-02T21:21:31.474Z,102166.41
2023-04-02T21:24:00.422Z,102168.56
2023-04-02T21:26:29.366Z,102171.53
2023-04-02T21:28:56.382Z,102166.78
2023-04-02T21:31:28.901Z,102167.44
2023-04-02T21:33:58.180Z,102163.84
2023-04-02T21:36:30.587Z,102173.91
2023-04-02T21:39:06.006Z,102161.72
2023-04-02T21:41:35.113Z,102176.72
2023-04-02T21:44:03.265Z,102182.50
2023-04-02T21:46:32.021Z,102174.78
2023-04-02T21:48:59.868Z,102178.25
2023-04-02T21:51:31.909Z,102188.31
2023-04-02T21:53:59.667Z,102182.56
2023-04-02T21:56:28.515Z,102183.69
2023-04-02T21:58:56.987Z,102181.75
2023-04-02T22:01:28.029Z,102180.59
2023-04-02T22:03:56.536Z,102189.16
2023-04-02T22:06:25.104Z,102192.28
2023-04-02T22:08:54.998Z,102186.84
2023-04-02T22:11:24.551Z,102189.66
2023-04-02T22:13:51.184Z,102193.44
2023-04-02T22:16:23.934Z,102186.19
2023-04-02T22:18:51.736Z,102189.16
2023-04-02T22:21:19.203Z,102187.66
2023-04-02T22:23:46.281Z,102189.97
2023-04-02T22:26:14.363Z,102182.72
2023-04-02T22:28:41.108Z,102194.88
2023-04-02T22:31:26.190Z,102189.97
2023-04-02T22:33:54.325Z,102189.78
2023-04-02T22:36:22.481Z,102193.41
2023-04-02T22:38:49.908Z,102196.50
2023-04-02T22:41:28.219Z,102200.44
2023-04-02T22:43:56.644Z,102199.31
2023-04-02T22:46:24.507Z,102200.13
2023-04-02T22:48:51.162Z,102194.84
2023-04-02T22:51:20.091Z,102195.84
2023-04-02T22:53:47.996Z,102195.31
2023-04-02T22:56:26.763Z,102198.28
2023-04-02T22:58:53.294Z,102196.63
2023-04-02T23:01:22.063Z,102194.47
2023-04-02T23:03:49.243Z,102200.84
2023-04-02T23:06:18.409Z,102199.53
2023-04-02T23:08:45.797Z,102200.50
2023-04-02T23:11:16.802Z,102193.06
2023-04-02T23:13:44.266Z,102193.06
2023-04-02T23:16:13.441Z,102202.91
2023-04-02T23:18:42.118Z,102198.94
2023-04-02T23:21:09.355Z,102205.50
2023-04-02T23:23:36.724Z,102205.78
2023-04-02T23:26:12.290Z,102207.91
2023-04-02T23:28:39.611Z,102204.13
2023-04-02T23:31:08.852Z,102203.41
2023-04-02T23:33:35.576Z,102199.28
2023-04-02T23:36:14.994Z,102198.09
2023-04-02T23:38:41.651Z,102196.25
2023-04-02T23:41:08.153Z,102194.63
2023-04-02T23:43:34.641Z,102195.75
2023-04-02T23:46:01.171Z,102198.00
2023-04-02T23:48:27.736Z,102204.84
2023-04-02T23:50:54.325Z,102202.19
2023-04-02T23:53:21.024Z,102203.16
2023-04-02T23:55:47.886Z,102199.31
2023-04-02T23:58:14.491Z,102199.50
